sensor_id;sensor_type;location;lat;lon;timestamp;P1;durP1;ratioP1;P2;durP2;ratioP2
35522;SDS011;61478;50.820;4.330;2023-04-15T00:00:05;7.10;;;3.60;;
35522;SDS011;61478;50.820;4.330;2023-04-15T00:02:32;4.97;;;3.60;;
35522;SDS011;61478;50.820;4.330;2023-04-15T00:04:58;9.38;;;3.88;;
35522;SDS011;61478;50.820;4.330;2023-04-15T00:07:23;6.70;;;3.38;;
35522;SDS011;61478;50.820;4.330;2023-04-15T00:09:49;7.68;;;3.75;;
35522;SDS011;61478;50.820;4.330;2023-04-15T00:12:19;12.25;;;4.50;;
35522;SDS011;61478;50.820;4.330;2023-04-15T00:14:45;16.23;;;4.05;;
35522;SDS011;61478;50.820;4.330;2023-04-15T00:17:11;7.45;;;3.63;;
35522;SDS011;61478;50.820;4.330;2023-04-15T00:19:38;7.60;;;3.20;;
35522;SDS011;61478;50.820;4.330;2023-04-15T00:22:04;11.73;;;3.60;;
35522;SDS011;61478;50.820;4.330;2023-04-15T00:24:31;4.75;;;3.00;;
35522;SDS011;61478;50.820;4.330;2023-04-15T00:26:56;6.32;;;3.70;;
35522;SDS011;61478;50.820;4.330;2023-04-15T00:29:22;8.25;;;3.88;;
35522;SDS011;61478;50.820;4.330;2023-04-15T00:31:48;8.30;;;5.05;;
35522;SDS011;61478;50.820;4.330;2023-04-15T00:34:15;10.38;;;4.47;;
35522;SDS011;61478;50.820;4.330;2023-04-15T00:36:40;7.38;;;4.75;;
35522;SDS011;61478;50.820;4.330;2023-04-15T00:39:06;12.25;;;4.75;;
35522;SDS011;61478;50.820;4.330;2023-04-15T00:41:32;8.77;;;4.63;;
35522;SDS011;61478;50.820;4.330;2023-04-15T00:43:58;10.90;;;5.18;;
35522;SDS011;61478;50.820;4.330;2023-04-15T00:46:27;6.85;;;4.90;;
35522;SDS011;61478;50.820;4.330;2023-04-15T00:48:55;8.82;;;5.30;;
35522;SDS011;61478;50.820;4.330;2023-04-15T00:51:21;10.30;;;5.00;;
35522;SDS011;61478;50.820;4.330;2023-04-15T00:53:47;8.90;;;5.05;;
35522;SDS011;61478;50.820;4.330;2023-04-15T00:56:13;9.40;;;5.70;;
35522;SDS011;61478;50.820;4.330;2023-04-15T00:58:39;9.95;;;5.55;;
35522;SDS011;61478;50.820;4.330;2023-04-15T01:01:05;8.07;;;5.38;;
35522;SDS011;61478;50.820;4.330;2023-04-15T01:03:30;14.50;;;5.15;;
35522;SDS011;61478;50.820;4.330;2023-04-15T01:05:56;7.50;;;5.55;;
35522;SDS011;61478;50.820;4.330;2023-04-15T01:08:26;7.72;;;5.05;;
35522;SDS011;61478;50.820;4.330;2023-04-15T01:10:56;9.48;;;4.65;;
35522;SDS011;61478;50.820;4.330;2023-04-15T01:13:23;8.15;;;5.00;;
35522;SDS011;61478;50.820;4.330;2023-04-15T01:15:50;7.70;;;5.43;;
35522;SDS011;61478;50.820;4.330;2023-04-15T01:18:17;9.40;;;5.05;;
35522;SDS011;61478;50.820;4.330;2023-04-15T01:20:43;6.70;;;5.13;;
35522;SDS011;61478;50.820;4.330;2023-04-15T01:23:09;9.60;;;5.20;;
35522;SDS011;61478;50.820;4.330;2023-04-15T01:25:35;13.05;;;5.13;;
35522;SDS011;61478;50.820;4.330;2023-04-15T01:28:01;9.85;;;4.97;;
35522;SDS011;61478;50.820;4.330;2023-04-15T01:30:27;9.73;;;4.78;;
35522;SDS011;61478;50.820;4.330;2023-04-15T01:32:53;7.28;;;4.45;;
35522;SDS011;61478;50.820;4.330;2023-04-15T01:35:19;5.65;;;4.28;;
35522;SDS011;61478;50.820;4.330;2023-04-15T01:37:45;6.10;;;3.90;;
35522;SDS011;61478;50.820;4.330;2023-04-15T01:40:11;9.60;;;4.47;;
35522;SDS011;61478;50.820;4.330;2023-04-15T01:42:38;10.75;;;4.80;;
35522;SDS011;61478;50.820;4.330;2023-04-15T01:45:03;6.80;;;4.28;;
35522;SDS011;61478;50.820;4.330;2023-04-15T01:47:31;7.63;;;4.32;;
35522;SDS011;61478;50.820;4.330;2023-04-15T01:49:57;8.38;;;4.28;;
35522;SDS011;61478;50.820;4.330;2023-04-15T01:52:23;10.68;;;4.43;;
35522;SDS011;61478;50.820;4.330;2023-04-15T01:54:49;7.72;;;5.28;;
35522;SDS011;61478;50.820;4.330;2023-04-15T01:57:15;7.95;;;5.03;;
35522;SDS011;61478;50.820;4.330;2023-04-15T01:59:41;11.00;;;5.13;;
35522;SDS011;61478;50.820;4.330;2023-04-15T02:02:07;17.35;;;5.18;;
35522;SDS011;61478;50.820;4.330;2023-04-15T02:04:33;10.40;;;5.40;;
35522;SDS011;61478;50.820;4.330;2023-04-15T02:06:59;8.00;;;5.40;;
35522;SDS011;61478;50.820;4.330;2023-04-15T02:09:24;9.60;;;5.75;;
35522;SDS011;61478;50.820;4.330;2023-04-15T02:11:50;9.07;;;5.30;;
35522;SDS011;61478;50.820;4.330;2023-04-15T02:14:18;9.05;;;5.40;;
35522;SDS011;61478;50.820;4.330;2023-04-15T02:16:44;12.70;;;5.07;;
35522;SDS011;61478;50.820;4.330;2023-04-15T02:19:09;11.30;;;5.90;;
35522;SDS011;61478;50.820;4.330;2023-04-15T02:21:36;7.75;;;5.15;;
35522;SDS011;61478;50.820;4.330;2023-04-15T02:24:02;8.43;;;4.93;;
35522;SDS011;61478;50.820;4.330;2023-04-15T02:26:28;8.65;;;4.60;;
35522;SDS011;61478;50.820;4.330;2023-04-15T02:28:56;7.78;;;4.65;;
35522;SDS011;61478;50.820;4.330;2023-04-15T02:31:22;7.43;;;4.13;;
35522;SDS011;61478;50.820;4.330;2023-04-15T02:33:48;5.68;;;3.63;;
35522;SDS011;61478;50.820;4.330;2023-04-15T02:36:14;7.47;;;4.20;;
35522;SDS011;61478;50.820;4.330;2023-04-15T02:38:40;5.57;;;3.65;;
35522;SDS011;61478;50.820;4.330;2023-04-15T02:41:08;6.88;;;4.10;;
35522;SDS011;61478;50.820;4.330;2023-04-15T02:43:34;7.47;;;4.28;;
35522;SDS011;61478;50.820;4.330;2023-04-15T02:46:00;8.02;;;4.03;;
35522;SDS011;61478;50.820;4.330;2023-04-15T02:48:26;5.10;;;3.17;;
35522;SDS011;61478;50.820;4.330;2023-04-15T02:50:52;5.25;;;3.05;;
35522;SDS011;61478;50.820;4.330;2023-04-15T02:53:17;4.32;;;3.08;;
35522;SDS011;61478;50.820;4.330;2023-04-15T02:55:44;4.53;;;3.05;;
35522;SDS011;61478;50.820;4.330;2023-04-15T02:58:10;3.80;;;3.05;;
35522;SDS011;61478;50.820;4.330;2023-04-15T03:00:36;3.35;;;2.67;;
35522;SDS011;61478;50.820;4.330;2023-04-15T03:03:02;5.18;;;3.25;;
35522;SDS011;61478;50.820;4.330;2023-04-15T03:05:29;10.05;;;3.17;;
35522;SDS011;61478;50.820;4.330;2023-04-15T03:07:55;7.53;;;3.47;;
35522;SDS011;61478;50.820;4.330;2023-04-15T03:10:21;6.10;;;3.20;;
35522;SDS011;61478;50.820;4.330;2023-04-15T03:12:47;9.20;;;3.35;;
35522;SDS011;61478;50.820;4.330;2023-04-15T03:15:13;5.72;;;3.45;;
35522;SDS011;61478;50.820;4.330;2023-04-15T03:17:39;6.63;;;3.70;;
35522;SDS011;61478;50.820;4.330;2023-04-15T03:20:05;5.72;;;3.20;;
35522;SDS011;61478;50.820;4.330;2023-04-15T03:22:31;11.88;;;6.78;;
35522;SDS011;61478;50.820;4.330;2023-04-15T03:24:57;19.35;;;9.93;;
35522;SDS011;61478;50.820;4.330;2023-04-15T03:27:23;18.38;;;10.23;;
35522;SDS011;61478;50.820;4.330;2023-04-15T03:29:50;15.73;;;8.73;;
35522;SDS011;61478;50.820;4.330;2023-04-15T03:32:16;19.75;;;11.50;;
35522;SDS011;61478;50.820;4.330;2023-04-15T03:34:42;19.15;;;10.52;;
35522;SDS011;61478;50.820;4.330;2023-04-15T03:37:08;19.13;;;10.90;;
35522;SDS011;61478;50.820;4.330;2023-04-15T03:39:34;23.23;;;12.48;;
35522;SDS011;61478;50.820;4.330;2023-04-15T03:42:00;23.35;;;13.32;;
35522;SDS011;61478;50.820;4.330;2023-04-15T03:44:29;21.25;;;12.77;;
35522;SDS011;61478;50.820;4.330;2023-04-15T03:46:54;21.38;;;12.85;;
35522;SDS011;61478;50.820;4.330;2023-04-15T03:49:20;28.55;;;15.38;;
35522;SDS011;61478;50.820;4.330;2023-04-15T03:51:47;29.38;;;15.93;;
35522;SDS011;61478;50.820;4.330;2023-04-15T03:54:13;27.00;;;17.35;;
35522;SDS011;61478;50.820;4.330;2023-04-15T03:56:39;29.42;;;17.10;;
35522;SDS011;61478;50.820;4.330;2023-04-15T03:59:05;28.42;;;14.73;;
35522;SDS011;61478;50.820;4.330;2023-04-15T04:01:31;22.98;;;13.23;;
35522;SDS011;61478;50.820;4.330;2023-04-15T04:03:57;22.77;;;12.88;;
35522;SDS011;61478;50.820;4.330;2023-04-15T04:06:22;20.75;;;11.63;;
35522;SDS011;61478;50.820;4.330;2023-04-15T04:08:48;16.70;;;11.02;;
35522;SDS011;61478;50.820;4.330;2023-04-15T04:11:14;23.60;;;12.30;;
35522;SDS011;61478;50.820;4.330;2023-04-15T04:13:40;19.20;;;11.23;;
35522;SDS011;61478;50.820;4.330;2023-04-15T04:16:06;15.57;;;9.95;;
35522;SDS011;61478;50.820;4.330;2023-04-15T04:18:32;19.17;;;10.88;;
35522;SDS011;61478;50.820;4.330;2023-04-15T04:20:58;17.45;;;10.38;;
35522;SDS011;61478;50.820;4.330;2023-04-15T04:23:24;16.98;;;10.10;;
35522;SDS011;61478;50.820;4.330;2023-04-15T04:25:50;17.73;;;10.77;;
35522;SDS011;61478;50.820;4.330;2023-04-15T04:28:17;17.45;;;9.80;;
35522;SDS011;61478;50.820;4.330;2023-04-15T04:30:43;17.75;;;10.80;;
35522;SDS011;61478;50.820;4.330;2023-04-15T04:33:09;19.98;;;10.23;;
35522;SDS011;61478;50.820;4.330;2023-04-15T04:35:35;16.77;;;11.18;;
35522;SDS011;61478;50.820;4.330;2023-04-15T04:38:02;16.50;;;10.63;;
35522;SDS011;61478;50.820;4.330;2023-04-15T04:40:28;16.83;;;10.88;;
35522;SDS011;61478;50.820;4.330;2023-04-15T04:42:56;20.02;;;11.23;;
35522;SDS011;61478;50.820;4.330;2023-04-15T04:45:21;15.40;;;9.48;;
35522;SDS011;61478;50.820;4.330;2023-04-15T04:47:47;14.88;;;9.60;;
35522;SDS011;61478;50.820;4.330;2023-04-15T04:50:13;19.23;;;10.38;;
35522;SDS011;61478;50.820;4.330;2023-04-15T04:52:39;17.40;;;10.57;;
35522;SDS011;61478;50.820;4.330;2023-04-15T04:55:05;17.52;;;10.77;;
35522;SDS011;61478;50.820;4.330;2023-04-15T04:57:32;19.92;;;11.38;;
35522;SDS011;61478;50.820;4.330;2023-04-15T05:00:02;21.45;;;11.52;;
35522;SDS011;61478;50.820;4.330;2023-04-15T05:02:29;14.77;;;9.80;;
35522;SDS011;61478;50.820;4.330;2023-04-15T05:04:54;15.38;;;9.60;;
35522;SDS011;61478;50.820;4.330;2023-04-15T05:07:22;20.55;;;8.80;;
35522;SDS011;61478;50.820;4.330;2023-04-15T05:09:48;16.27;;;8.63;;
35522;SDS011;61478;50.820;4.330;2023-04-15T05:12:13;17.98;;;9.63;;
35522;SDS011;61478;50.820;4.330;2023-04-15T05:14:39;19.00;;;8.98;;
35522;SDS011;61478;50.820;4.330;2023-04-15T05:17:06;14.23;;;8.75;;
35522;SDS011;61478;50.820;4.330;2023-04-15T05:19:32;13.82;;;9.15;;
35522;SDS011;61478;50.820;4.330;2023-04-15T05:21:58;18.77;;;10.10;;
35522;SDS011;61478;50.820;4.330;2023-04-15T05:24:25;17.27;;;9.63;;
35522;SDS011;61478;50.820;4.330;2023-04-15T05:26:51;13.50;;;8.25;;
35522;SDS011;61478;50.820;4.330;2023-04-15T05:29:17;16.08;;;8.57;;
35522;SDS011;61478;50.820;4.330;2023-04-15T05:31:43;13.27;;;8.25;;
35522;SDS011;61478;50.820;4.330;2023-04-15T05:34:08;16.10;;;8.48;;
35522;SDS011;61478;50.820;4.330;2023-04-15T05:36:35;11.23;;;8.40;;
35522;SDS011;61478;50.820;4.330;2023-04-15T05:39:01;13.13;;;7.43;;
35522;SDS011;61478;50.820;4.330;2023-04-15T05:41:28;15.38;;;8.15;;
35522;SDS011;61478;50.820;4.330;2023-04-15T05:43:54;19.75;;;7.68;;
35522;SDS011;61478;50.820;4.330;2023-04-15T05:46:20;16.70;;;7.70;;
35522;SDS011;61478;50.820;4.330;2023-04-15T05:48:46;10.57;;;6.60;;
35522;SDS011;61478;50.820;4.330;2023-04-15T05:51:12;11.98;;;7.05;;
35522;SDS011;61478;50.820;4.330;2023-04-15T05:53:38;15.43;;;6.60;;
35522;SDS011;61478;50.820;4.330;2023-04-15T05:56:05;13.60;;;6.72;;
35522;SDS011;61478;50.820;4.330;2023-04-15T05:58:31;18.23;;;6.15;;
35522;SDS011;61478;50.820;4.330;2023-04-15T06:00:57;16.75;;;7.57;;
35522;SDS011;61478;50.820;4.330;2023-04-15T06:03:23;15.15;;;7.22;;
35522;SDS011;61478;50.820;4.330;2023-04-15T06:05:49;13.20;;;7.35;;
35522;SDS011;61478;50.820;4.330;2023-04-15T06:08:15;9.60;;;6.57;;
35522;SDS011;61478;50.820;4.330;2023-04-15T06:10:41;14.30;;;7.70;;
35522;SDS011;61478;50.820;4.330;2023-04-15T06:13:07;13.52;;;7.35;;
35522;SDS011;61478;50.820;4.330;2023-04-15T06:15:33;14.70;;;8.18;;
35522;SDS011;61478;50.820;4.330;2023-04-15T06:17:58;13.20;;;9.30;;
35522;SDS011;61478;50.820;4.330;2023-04-15T06:20:24;18.58;;;8.52;;
35522;SDS011;61478;50.820;4.330;2023-04-15T06:22:50;15.50;;;9.27;;
35522;SDS011;61478;50.820;4.330;2023-04-15T06:25:16;14.80;;;9.25;;
35522;SDS011;61478;50.820;4.330;2023-04-15T06:27:42;14.85;;;9.32;;
35522;SDS011;61478;50.820;4.330;2023-04-15T06:30:08;15.15;;;9.07;;
35522;SDS011;61478;50.820;4.330;2023-04-15T06:32:34;15.95;;;8.60;;
35522;SDS011;61478;50.820;4.330;2023-04-15T06:35:00;15.18;;;8.60;;
35522;SDS011;61478;50.820;4.330;2023-04-15T06:37:26;16.83;;;10.93;;
35522;SDS011;61478;50.820;4.330;2023-04-15T06:39:51;16.33;;;10.80;;
35522;SDS011;61478;50.820;4.330;2023-04-15T06:42:17;21.55;;;10.10;;
35522;SDS011;61478;50.820;4.330;2023-04-15T06:44:43;17.95;;;9.25;;
35522;SDS011;61478;50.820;4.330;2023-04-15T06:47:09;13.95;;;8.07;;
35522;SDS011;61478;50.820;4.330;2023-04-15T06:49:37;14.35;;;7.75;;
35522;SDS011;61478;50.820;4.330;2023-04-15T06:52:04;16.52;;;7.55;;
35522;SDS011;61478;50.820;4.330;2023-04-15T06:54:30;14.45;;;8.20;;
35522;SDS011;61478;50.820;4.330;2023-04-15T06:56:56;13.38;;;6.85;;
35522;SDS011;61478;50.820;4.330;2023-04-15T06:59:21;10.75;;;6.85;;
35522;SDS011;61478;50.820;4.330;2023-04-15T07:01:48;11.20;;;6.82;;
35522;SDS011;61478;50.820;4.330;2023-04-15T07:04:14;12.60;;;6.13;;
35522;SDS011;61478;50.820;4.330;2023-04-15T07:06:39;17.05;;;7.25;;
35522;SDS011;61478;50.820;4.330;2023-04-15T07:09:06;15.68;;;6.65;;
35522;SDS011;61478;50.820;4.330;2023-04-15T07:11:32;10.30;;;6.22;;
35522;SDS011;61478;50.820;4.330;2023-04-15T07:13:58;13.45;;;6.35;;
35522;SDS011;61478;50.820;4.330;2023-04-15T07:16:24;10.48;;;6.07;;
35522;SDS011;61478;50.820;4.330;2023-04-15T07:18:50;12.77;;;6.28;;
35522;SDS011;61478;50.820;4.330;2023-04-15T07:21:16;12.50;;;6.13;;
35522;SDS011;61478;50.820;4.330;2023-04-15T07:23:42;16.23;;;6.63;;
35522;SDS011;61478;50.820;4.330;2023-04-15T07:26:08;14.45;;;6.45;;
35522;SDS011;61478;50.820;4.330;2023-04-15T07:28:35;13.13;;;7.05;;
35522;SDS011;61478;50.820;4.330;2023-04-15T07:31:01;14.02;;;7.22;;
35522;SDS011;61478;50.820;4.330;2023-04-15T07:33:26;19.83;;;7.63;;
35522;SDS011;61478;50.820;4.330;2023-04-15T07:35:52;14.68;;;6.93;;
35522;SDS011;61478;50.820;4.330;2023-04-15T07:38:18;12.38;;;6.72;;
35522;SDS011;61478;50.820;4.330;2023-04-15T07:40:45;14.05;;;7.40;;
35522;SDS011;61478;50.820;4.330;2023-04-15T07:43:11;14.57;;;6.25;;
35522;SDS011;61478;50.820;4.330;2023-04-15T07:45:37;14.13;;;7.15;;
35522;SDS011;61478;50.820;4.330;2023-04-15T07:48:03;13.50;;;7.45;;
35522;SDS011;61478;50.820;4.330;2023-04-15T07:50:30;15.38;;;7.47;;
35522;SDS011;61478;50.820;4.330;2023-04-15T07:52:56;17.33;;;8.60;;
35522;SDS011;61478;50.820;4.330;2023-04-15T07:55:22;15.13;;;9.07;;
35522;SDS011;61478;50.820;4.330;2023-04-15T07:57:48;16.90;;;7.88;;
35522;SDS011;61478;50.820;4.330;2023-04-15T08:00:15;18.80;;;8.57;;
35522;SDS011;61478;50.820;4.330;2023-04-15T08:02:44;18.40;;;8.20;;
35522;SDS011;61478;50.820;4.330;2023-04-15T08:05:12;14.95;;;8.77;;
35522;SDS011;61478;50.820;4.330;2023-04-15T08:07:38;12.75;;;8.10;;
35522;SDS011;61478;50.820;4.330;2023-04-15T08:10:05;16.67;;;8.57;;
35522;SDS011;61478;50.820;4.330;2023-04-15T08:12:31;17.70;;;8.77;;
35522;SDS011;61478;50.820;4.330;2023-04-15T08:14:57;19.15;;;8.98;;
35522;SDS011;61478;50.820;4.330;2023-04-15T08:17:23;16.60;;;8.45;;
35522;SDS011;61478;50.820;4.330;2023-04-15T08:19:49;17.98;;;8.80;;
35522;SDS011;61478;50.820;4.330;2023-04-15T08:22:15;19.02;;;8.43;;
35522;SDS011;61478;50.820;4.330;2023-04-15T08:24:41;17.52;;;9.15;;
35522;SDS011;61478;50.820;4.330;2023-04-15T08:27:07;20.55;;;8.95;;
35522;SDS011;61478;50.820;4.330;2023-04-15T08:29:33;17.45;;;13.25;;
35522;SDS011;61478;50.820;4.330;2023-04-15T08:31:59;18.63;;;9.30;;
35522;SDS011;61478;50.820;4.330;2023-04-15T08:34:28;17.10;;;7.85;;
35522;SDS011;61478;50.820;4.330;2023-04-15T08:36:54;18.20;;;8.88;;
35522;SDS011;61478;50.820;4.330;2023-04-15T08:39:20;16.55;;;8.63;;
35522;SDS011;61478;50.820;4.330;2023-04-15T08:41:47;17.15;;;8.43;;
35522;SDS011;61478;50.820;4.330;2023-04-15T08:44:26;19.23;;;9.85;;
35522;SDS011;61478;50.820;4.330;2023-04-15T08:46:56;31.10;;;10.07;;
35522;SDS011;61478;50.820;4.330;2023-04-15T08:49:26;12.60;;;8.98;;
35522;SDS011;61478;50.820;4.330;2023-04-15T08:51:52;18.85;;;9.15;;
35522;SDS011;61478;50.820;4.330;2023-04-15T08:54:20;15.07;;;9.32;;
35522;SDS011;61478;50.820;4.330;2023-04-15T08:56:47;17.67;;;11.00;;
35522;SDS011;61478;50.820;4.330;2023-04-15T08:59:13;20.70;;;10.15;;
35522;SDS011;61478;50.820;4.330;2023-04-15T09:01:40;23.48;;;10.38;;
35522;SDS011;61478;50.820;4.330;2023-04-15T09:04:06;20.63;;;10.18;;
35522;SDS011;61478;50.820;4.330;2023-04-15T09:06:32;31.48;;;10.93;;
35522;SDS011;61478;50.820;4.330;2023-04-15T09:08:59;15.68;;;9.50;;
35522;SDS011;61478;50.820;4.330;2023-04-15T09:11:25;16.85;;;9.98;;
35522;SDS011;61478;50.820;4.330;2023-04-15T09:13:51;14.50;;;9.18;;
35522;SDS011;61478;50.820;4.330;2023-04-15T09:16:17;22.40;;;10.00;;
35522;SDS011;61478;50.820;4.330;2023-04-15T09:18:43;25.15;;;9.45;;
35522;SDS011;61478;50.820;4.330;2023-04-15T09:21:09;18.17;;;9.32;;
35522;SDS011;61478;50.820;4.330;2023-04-15T09:23:39;24.92;;;11.00;;
35522;SDS011;61478;50.820;4.330;2023-04-15T09:26:17;16.60;;;9.15;;
35522;SDS011;61478;50.820;4.330;2023-04-15T09:28:43;13.43;;;8.18;;
35522;SDS011;61478;50.820;4.330;2023-04-15T09:31:09;14.70;;;8.38;;
35522;SDS011;61478;50.820;4.330;2023-04-15T09:33:35;18.13;;;8.27;;
35522;SDS011;61478;50.820;4.330;2023-04-15T09:36:18;14.20;;;8.55;;
35522;SDS011;61478;50.820;4.330;2023-04-15T09:38:53;11.40;;;7.47;;
35522;SDS011;61478;50.820;4.330;2023-04-15T09:41:21;14.15;;;6.80;;
35522;SDS011;61478;50.820;4.330;2023-04-15T09:43:47;11.50;;;5.50;;
35522;SDS011;61478;50.820;4.330;2023-04-15T09:46:13;9.45;;;5.10;;
35522;SDS011;61478;50.820;4.330;2023-04-15T09:48:39;9.50;;;5.35;;
35522;SDS011;61478;50.820;4.330;2023-04-15T09:51:04;19.42;;;5.55;;
35522;SDS011;61478;50.820;4.330;2023-04-15T09:53:32;9.48;;;5.55;;
35522;SDS011;61478;50.820;4.330;2023-04-15T09:56:00;12.70;;;5.72;;
35522;SDS011;61478;50.820;4.330;2023-04-15T09:58:27;11.48;;;5.53;;
35522;SDS011;61478;50.820;4.330;2023-04-15T10:00:55;11.63;;;5.32;;
35522;SDS011;61478;50.820;4.330;2023-04-15T10:03:26;11.38;;;5.30;;
35522;SDS011;61478;50.820;4.330;2023-04-15T10:05:53;10.02;;;4.65;;
35522;SDS011;61478;50.820;4.330;2023-04-15T10:08:28;6.07;;;4.10;;
35522;SDS011;61478;50.820;4.330;2023-04-15T10:10:55;12.75;;;5.45;;
35522;SDS011;61478;50.820;4.330;2023-04-15T10:13:25;7.72;;;4.97;;
35522;SDS011;61478;50.820;4.330;2023-04-15T10:16:00;10.50;;;5.28;;
35522;SDS011;61478;50.820;4.330;2023-04-15T10:18:31;9.07;;;5.45;;
35522;SDS011;61478;50.820;4.330;2023-04-15T10:21:00;8.20;;;5.00;;
35522;SDS011;61478;50.820;4.330;2023-04-15T10:23:26;10.70;;;5.70;;
35522;SDS011;61478;50.820;4.330;2023-04-15T10:25:53;7.93;;;5.63;;
35522;SDS011;61478;50.820;4.330;2023-04-15T10:28:19;10.68;;;5.90;;
35522;SDS011;61478;50.820;4.330;2023-04-15T10:30:48;8.23;;;5.50;;
35522;SDS011;61478;50.820;4.330;2023-04-15T10:33:16;7.53;;;5.68;;
35522;SDS011;61478;50.820;4.330;2023-04-15T10:35:44;8.07;;;5.22;;
35522;SDS011;61478;50.820;4.330;2023-04-15T10:41:14;9.90;;;5.60;;
35522;SDS011;61478;50.820;4.330;2023-04-15T10:43:46;10.25;;;5.07;;
35522;SDS011;61478;50.820;4.330;2023-04-15T10:46:12;10.15;;;6.25;;
35522;SDS011;61478;50.820;4.330;2023-04-15T10:48:45;10.88;;;5.32;;
35522;SDS011;61478;50.820;4.330;2023-04-15T10:51:15;7.55;;;5.00;;
35522;SDS011;61478;50.820;4.330;2023-04-15T10:53:41;15.32;;;6.30;;
35522;SDS011;61478;50.820;4.330;2023-04-15T10:56:08;14.50;;;5.43;;
35522;SDS011;61478;50.820;4.330;2023-04-15T10:58:41;9.93;;;4.35;;
35522;SDS011;61478;50.820;4.330;2023-04-15T11:01:08;6.50;;;3.50;;
35522;SDS011;61478;50.820;4.330;2023-04-15T11:03:38;8.40;;;3.20;;
35522;SDS011;61478;50.820;4.330;2023-04-15T11:06:05;7.10;;;3.13;;
35522;SDS011;61478;50.820;4.330;2023-04-15T11:11:20;6.30;;;3.33;;
35522;SDS011;61478;50.820;4.330;2023-04-15T11:13:47;5.55;;;2.50;;
35522;SDS011;61478;50.820;4.330;2023-04-15T11:16:14;7.18;;;3.17;;
35522;SDS011;61478;50.820;4.330;2023-04-15T11:18:40;9.15;;;2.30;;
35522;SDS011;61478;50.820;4.330;2023-04-15T11:21:06;6.75;;;2.83;;
35522;SDS011;61478;50.820;4.330;2023-04-15T11:23:40;9.27;;;2.83;;
35522;SDS011;61478;50.820;4.330;2023-04-15T11:26:11;6.35;;;2.33;;
35522;SDS011;61478;50.820;4.330;2023-04-15T11:28:41;6.55;;;3.03;;
35522;SDS011;61478;50.820;4.330;2023-04-15T11:31:12;3.38;;;2.70;;
35522;SDS011;61478;50.820;4.330;2023-04-15T11:33:44;6.10;;;3.53;;
35522;SDS011;61478;50.820;4.330;2023-04-15T11:36:19;7.70;;;3.97;;
35522;SDS011;61478;50.820;4.330;2023-04-15T11:38:47;6.20;;;3.00;;
35522;SDS011;61478;50.820;4.330;2023-04-15T11:41:13;5.25;;;3.40;;
35522;SDS011;61478;50.820;4.330;2023-04-15T11:43:39;8.55;;;4.40;;
35522;SDS011;61478;50.820;4.330;2023-04-15T11:46:05;7.05;;;4.25;;
35522;SDS011;61478;50.820;4.330;2023-04-15T11:48:33;11.38;;;4.32;;
35522;SDS011;61478;50.820;4.330;2023-04-15T11:51:01;4.60;;;3.40;;
35522;SDS011;61478;50.820;4.330;2023-04-15T11:53:41;3.85;;;2.58;;
35522;SDS011;61478;50.820;4.330;2023-04-15T11:56:08;6.50;;;2.72;;
35522;SDS011;61478;50.820;4.330;2023-04-15T11:58:35;3.10;;;2.33;;
35522;SDS011;61478;50.820;4.330;2023-04-15T12:01:02;4.15;;;2.47;;
35522;SDS011;61478;50.820;4.330;2023-04-15T12:03:42;3.38;;;2.95;;
35522;SDS011;61478;50.820;4.330;2023-04-15T12:06:18;4.78;;;3.35;;
35522;SDS011;61478;50.820;4.330;2023-04-15T12:13:55;5.47;;;2.60;;
35522;SDS011;61478;50.820;4.330;2023-04-15T12:16:21;5.00;;;2.13;;
35522;SDS011;61478;50.820;4.330;2023-04-15T12:18:52;5.32;;;2.65;;
35522;SDS011;61478;50.820;4.330;2023-04-15T12:21:22;6.63;;;2.83;;
35522;SDS011;61478;50.820;4.330;2023-04-15T12:23:52;3.40;;;2.22;;
35522;SDS011;61478;50.820;4.330;2023-04-15T12:26:26;3.05;;;2.15;;
35522;SDS011;61478;50.820;4.330;2023-04-15T12:29:04;3.10;;;2.55;;
35522;SDS011;61478;50.820;4.330;2023-04-15T12:31:31;4.22;;;2.53;;
35522;SDS011;61478;50.820;4.330;2023-04-15T12:33:58;3.10;;;2.80;;
35522;SDS011;61478;50.820;4.330;2023-04-15T12:36:25;3.92;;;3.08;;
35522;SDS011;61478;50.820;4.330;2023-04-15T12:38:52;5.32;;;2.75;;
35522;SDS011;61478;50.820;4.330;2023-04-15T12:41:19;5.47;;;3.25;;
35522;SDS011;61478;50.820;4.330;2023-04-15T12:43:45;5.85;;;3.90;;
35522;SDS011;61478;50.820;4.330;2023-04-15T12:46:12;3.30;;;2.53;;
35522;SDS011;61478;50.820;4.330;2023-04-15T12:48:38;4.43;;;2.33;;
35522;SDS011;61478;50.820;4.330;2023-04-15T12:51:04;3.88;;;2.00;;
35522;SDS011;61478;50.820;4.330;2023-04-15T12:53:30;4.57;;;3.13;;
35522;SDS011;61478;50.820;4.330;2023-04-15T12:55:56;5.47;;;2.80;;
35522;SDS011;61478;50.820;4.330;2023-04-15T12:58:22;5.10;;;2.63;;
35522;SDS011;61478;50.820;4.330;2023-04-15T13:00:47;4.20;;;3.05;;
35522;SDS011;61478;50.820;4.330;2023-04-15T13:03:14;4.75;;;1.95;;
35522;SDS011;61478;50.820;4.330;2023-04-15T13:05:40;5.28;;;2.30;;
35522;SDS011;61478;50.820;4.330;2023-04-15T13:08:06;6.18;;;1.90;;
35522;SDS011;61478;50.820;4.330;2023-04-15T13:10:34;4.47;;;2.10;;
35522;SDS011;61478;50.820;4.330;2023-04-15T13:13:03;3.13;;;2.00;;
35522;SDS011;61478;50.820;4.330;2023-04-15T13:15:29;4.15;;;2.38;;
35522;SDS011;61478;50.820;4.330;2023-04-15T13:17:55;6.05;;;2.30;;
35522;SDS011;61478;50.820;4.330;2023-04-15T13:20:20;5.38;;;3.20;;
35522;SDS011;61478;50.820;4.330;2023-04-15T13:22:46;6.35;;;2.60;;
35522;SDS011;61478;50.820;4.330;2023-04-15T13:25:13;4.68;;;2.67;;
35522;SDS011;61478;50.820;4.330;2023-04-15T13:27:39;6.45;;;2.60;;
35522;SDS011;61478;50.820;4.330;2023-04-15T13:30:05;6.35;;;2.80;;
35522;SDS011;61478;50.820;4.330;2023-04-15T13:32:31;7.13;;;2.97;;
35522;SDS011;61478;50.820;4.330;2023-04-15T13:34:57;5.88;;;3.00;;
35522;SDS011;61478;50.820;4.330;2023-04-15T13:37:27;7.35;;;5.90;;
35522;SDS011;61478;50.820;4.330;2023-04-15T13:39:53;6.57;;;3.45;;
35522;SDS011;61478;50.820;4.330;2023-04-15T13:42:20;4.18;;;2.95;;
35522;SDS011;61478;50.820;4.330;2023-04-15T13:44:49;4.70;;;2.70;;
35522;SDS011;61478;50.820;4.330;2023-04-15T13:47:18;9.90;;;3.63;;
35522;SDS011;61478;50.820;4.330;2023-04-15T13:49:46;4.63;;;2.75;;
35522;SDS011;61478;50.820;4.330;2023-04-15T13:52:12;10.30;;;2.80;;
35522;SDS011;61478;50.820;4.330;2023-04-15T13:54:38;5.43;;;2.72;;
35522;SDS011;61478;50.820;4.330;2023-04-15T13:57:04;6.20;;;2.53;;
35522;SDS011;61478;50.820;4.330;2023-04-15T13:59:31;6.03;;;2.30;;
35522;SDS011;61478;50.820;4.330;2023-04-15T14:01:58;6.25;;;2.65;;
35522;SDS011;61478;50.820;4.330;2023-04-15T14:04:24;6.65;;;2.63;;
35522;SDS011;61478;50.820;4.330;2023-04-15T14:06:51;4.50;;;2.15;;
35522;SDS011;61478;50.820;4.330;2023-04-15T14:09:17;6.80;;;4.00;;
35522;SDS011;61478;50.820;4.330;2023-04-15T14:11:43;5.93;;;2.30;;
35522;SDS011;61478;50.820;4.330;2023-04-15T14:14:08;10.35;;;2.40;;
35522;SDS011;61478;50.820;4.330;2023-04-15T14:16:34;7.95;;;2.75;;
35522;SDS011;61478;50.820;4.330;2023-04-15T14:19:00;9.38;;;2.42;;
35522;SDS011;61478;50.820;4.330;2023-04-15T14:21:26;4.95;;;2.90;;
35522;SDS011;61478;50.820;4.330;2023-04-15T14:23:53;8.20;;;2.92;;
35522;SDS011;61478;50.820;4.330;2023-04-15T14:26:18;6.43;;;2.67;;
35522;SDS011;61478;50.820;4.330;2023-04-15T14:28:44;5.75;;;2.83;;
35522;SDS011;61478;50.820;4.330;2023-04-15T14:31:11;5.82;;;3.08;;
35522;SDS011;61478;50.820;4.330;2023-04-15T14:33:38;10.57;;;3.40;;
35522;SDS011;61478;50.820;4.330;2023-04-15T14:36:04;6.63;;;3.17;;
35522;SDS011;61478;50.820;4.330;2023-04-15T14:38:30;6.95;;;3.67;;
35522;SDS011;61478;50.820;4.330;2023-04-15T14:41:02;8.40;;;2.40;;
35522;SDS011;61478;50.820;4.330;2023-04-15T14:43:28;4.40;;;2.78;;
35522;SDS011;61478;50.820;4.330;2023-04-15T14:45:54;3.85;;;1.80;;